Time;durP1;ratioP1;P1;durP2;ratioP2;P2;SDS_P1;SDS_P2;PMS_P1;PMS_P2;Temp;Humidity;BMP_temperature;BMP_pressure;BME280_temperature;BME280_humidity;BME280_pressure;Samples;Min_cycle;Max_cycle;Signal;HPM_P1;HPM_P2
2023/01/28 00:02:25;;;;;;;4.43;4.03;;;2.80;83.10;;;;;;5082860;28;20183;-89
2023/01/28 00:04:51;;;;;;;5.30;4.40;;;2.90;83.40;;;;;;5081877;28;20239;-89
2023/01/28 00:07:18;;;;;;;4.03;3.63;;;2.90;82.90;;;;;;5082290;28;20214;-88
2023/01/28 00:09:43;;;;;;;4.30;3.90;;;2.90;82.60;;;;;;5080728;28;20233;-88
2023/01/28 00:12:09;;;;;;;5.33;3.67;;;2.80;83.30;;;;;;5081273;28;20516;-90
2023/01/28 00:14:35;;;;;;;4.93;3.93;;;2.90;83.20;;;;;;5081992;28;20191;-88
2023/01/28 00:17:03;;;;;;;4.50;3.50;;;2.90;83.40;;;;;;5081367;28;20522;-88
2023/01/28 00:19:28;;;;;;;3.87;3.47;;;2.90;82.50;;;;;;5081377;28;20192;-88
2023/01/28 00:21:54;;;;;;;4.23;3.77;;;2.90;82.80;;;;;;5078966;28;20225;-88
2023/01/28 00:24:20;;;;;;;3.63;3.30;;;2.90;83.50;;;;;;5083185;28;20187;-89
2023/01/28 00:26:45;;;;;;;3.87;3.43;;;2.80;82.90;;;;;;5080914;28;20195;-88
2023/01/28 00:29:11;;;;;;;4.63;3.90;;;2.80;83.80;;;;;;5079713;28;20207;-88
2023/01/28 00:31:37;;;;;;;4.20;3.80;;;2.90;83.90;;;;;;5078450;28;20183;-88
2023/01/28 00:34:02;;;;;;;3.80;3.50;;;2.90;83.40;;;;;;5081057;28;20199;-88
2023/01/28 00:36:28;;;;;;;3.67;3.37;;;2.90;83.40;;;;;;5079115;28;20182;-88
2023/01/28 00:38:56;;;;;;;4.17;3.33;;;2.90;84.00;;;;;;5078961;28;20262;-88
2023/01/28 00:41:23;;;;;;;3.57;3.23;;;2.90;83.40;;;;;;5081300;28;20211;-89
2023/01/28 00:43:50;;;;;;;5.97;3.70;;;2.90;83.60;;;;;;5078583;28;20191;-87
2023/01/28 00:46:17;;;;;;;3.97;3.47;;;2.90;83.60;;;;;;5079101;28;20194;-88
2023/01/28 00:48:43;;;;;;;3.50;3.20;;;2.90;84.00;;;;;;5079019;28;20202;-88
2023/01/28 00:51:11;;;;;;;4.30;3.37;;;3.00;83.70;;;;;;5078813;28;20218;-89
2023/01/28 00:53:38;;;;;;;3.70;3.40;;;3.00;83.40;;;;;;5078947;28;20199;-88
2023/01/28 00:56:06;;;;;;;3.90;3.53;;;3.00;83.80;;;;;;5079951;28;20180;-88
2023/01/28 00:58:32;;;;;;;3.60;3.30;;;2.90;83.70;;;;;;5080649;28;20256;-88
2023/01/28 01:01:07;;;;;;;3.50;3.20;;;2.90;84.00;;;;;;5079258;28;20306;-89
2023/01/28 01:03:33;;;;;;;3.80;3.40;;;2.80;84.90;;;;;;5078808;28;20179;-88
2023/01/28 01:05:58;;;;;;;4.03;3.23;;;2.80;84.20;;;;;;5077482;28;20198;-87
2023/01/28 01:08:33;;;;;;;3.33;3.03;;;2.90;84.50;;;;;;5078047;28;20191;-88
2023/01/28 01:11:00;;;;;;;3.77;3.23;;;2.90;84.00;;;;;;5077538;28;20210;-89
2023/01/28 01:13:25;;;;;;;3.70;3.40;;;2.90;84.00;;;;;;5080021;28;20791;-88
2023/01/28 01:16:04;;;;;;;3.50;3.20;;;2.90;83.40;;;;;;5079379;28;20183;-89
2023/01/28 01:18:31;;;;;;;4.00;3.10;;;2.80;84.50;;;;;;5078771;28;20199;-88
2023/01/28 01:20:57;;;;;;;3.50;3.07;;;2.90;83.70;;;;;;5083659;28;20203;-88
2023/01/28 01:23:27;;;;;;;3.47;3.17;;;2.90;84.40;;;;;;5082655;28;20172;-89
2023/01/28 01:25:53;;;;;;;3.83;2.77;;;2.90;83.60;;;;;;5082287;28;20179;-89
2023/01/28 01:28:20;;;;;;;3.67;3.30;;;3.00;83.20;;;;;;5075399;28;20230;-88
2023/01/28 01:30:46;;;;;;;4.07;3.33;;;3.10;83.10;;;;;;5062544;28;20192;-92
2023/01/28 01:33:12;;;;;;;3.13;2.83;;;3.00;83.40;;;;;;5063142;28;20206;-91
2023/01/28 01:35:38;;;;;;;3.70;3.30;;;3.00;84.00;;;;;;5062177;28;20200;-91
2023/01/28 01:38:04;;;;;;;3.63;3.33;;;3.00;83.80;;;;;;5062445;28;20200;-90
2023/01/28 01:40:30;;;;;;;3.10;2.80;;;3.00;83.80;;;;;;5072451;28;20222;-89
2023/01/28 01:42:56;;;;;;;4.00;3.60;;;2.90;84.50;;;;;;5082631;28;20188;-90
2023/01/28 01:45:21;;;;;;;3.90;3.50;;;2.90;84.70;;;;;;5080991;28;20188;-91
2023/01/28 01:47:53;;;;;;;3.67;3.37;;;2.90;85.00;;;;;;5079912;28;20175;-90
2023/01/28 01:50:25;;;;;;;3.70;3.37;;;2.90;84.70;;;;;;5076996;28;20662;-90
2023/01/28 01:52:56;;;;;;;3.77;3.37;;;2.90;84.80;;;;;;5075658;28;20681;-86
2023/01/28 01:55:25;;;;;;;3.50;3.20;;;2.90;84.80;;;;;;5075770;28;20295;-87
2023/01/28 01:57:54;;;;;;;3.73;3.43;;;2.80;85.40;;;;;;5075471;28;20191;-90
2023/01/28 02:00:20;;;;;;;3.80;3.50;;;2.80;85.90;;;;;;5076340;28;20203;-89
2023/01/28 02:02:49;;;;;;;3.57;3.13;;;2.80;86.00;;;;;;5074980;28;20184;-88
2023/01/28 02:05:18;;;;;;;3.80;3.43;;;2.80;86.60;;;;;;5076283;28;20223;-88
2023/01/28 02:07:47;;;;;;;3.80;3.50;;;2.80;86.70;;;;;;5077068;28;20183;-88
2023/01/28 02:10:13;;;;;;;4.50;3.50;;;2.90;86.20;;;;;;5076737;28;20198;-87
2023/01/28 02:12:55;;;;;;;4.07;3.57;;;2.90;85.20;;;;;;5076933;28;20304;-88
2023/01/28 02:15:22;;;;;;;4.10;3.27;;;3.00;84.90;;;;;;5075418;28;20179;-88
2023/01/28 02:17:49;;;;;;;4.20;3.80;;;3.00;85.00;;;;;;5075321;28;20180;-87
2023/01/28 02:20:38;;;;;;;4.63;4.00;;;3.00;85.80;;;;;;5077323;28;20234;-87
2023/01/28 02:23:33;;;;;;;4.33;3.80;;;3.00;85.30;;;;;;5078998;28;20576;-88
2023/01/28 02:26:25;;;;;;;4.47;3.83;;;2.90;85.90;;;;;;5077484;28;20175;-88
2023/01/28 02:29:15;;;;;;;4.20;3.80;;;2.90;86.80;;;;;;5075727;28;20204;-88
2023/01/28 02:32:04;;;;;;;4.20;3.80;;;2.90;86.80;;;;;;5079841;28;20289;-89
2023/01/28 02:34:29;;;;;;;5.47;4.53;;;2.90;86.90;;;;;;5081176;28;20167;-87
2023/01/28 02:37:25;;;;;;;4.67;3.80;;;2.90;87.20;;;;;;5078057;28;20241;-87
2023/01/28 02:39:54;;;;;;;3.70;3.40;;;2.90;87.80;;;;;;5076869;28;20668;-89
2023/01/28 02:42:32;;;;;;;3.87;3.47;;;2.90;88.10;;;;;;5081018;28;20191;-87
2023/01/28 02:44:58;;;;;;;4.80;4.40;;;3.00;87.50;;;;;;5078948;28;20187;-88
2023/01/28 02:50:16;;;;;;;5.03;4.00;;;2.90;88.10;;;;;;5079479;28;20226;-89
2023/01/28 02:55:58;;;;;;;4.00;3.60;;;3.00;88.60;;;;;;5086136;28;20174;-87
2023/01/28 02:58:38;;;;;;;3.53;3.23;;;2.90;89.40;;;;;;5089184;28;20218;-90
2023/01/28 03:01:35;;;;;;;4.50;4.10;;;3.00;89.60;;;;;;5088592;28;20196;-89
2023/01/28 03:04:10;;;;;;;4.33;3.93;;;3.00;89.30;;;;;;5079524;28;20542;-88
2023/01/28 03:06:40;;;;;;;4.73;4.17;;;3.00;89.10;;;;;;5080745;28;20198;-90
2023/01/28 03:09:21;;;;;;;4.90;4.40;;;3.10;89.80;;;;;;5083127;28;20227;-89
2023/01/28 03:37:33;;;;;;;4.53;4.00;;;3.00;93.10;;;;;;5078566;28;20660;-88
2023/01/28 03:40:07;;;;;;;4.20;3.90;;;2.90;93.60;;;;;;5080096;28;20211;-89
2023/01/28 03:42:33;;;;;;;4.37;4.07;;;3.10;93.50;;;;;;5079502;28;20178;-89
2023/01/28 03:45:00;;;;;;;5.23;4.43;;;3.00;93.40;;;;;;5080001;28;20384;-88
2023/01/28 03:47:28;;;;;;;5.67;3.80;;;3.00;94.50;;;;;;5077315;28;20175;-89
2023/01/28 03:49:55;;;;;;;4.10;3.70;;;2.90;95.40;;;;;;5078788;28;20267;-89
2023/01/28 03:52:26;;;;;;;4.13;3.77;;;2.80;95.70;;;;;;5078058;28;20214;-89
2023/01/28 03:54:52;;;;;;;4.63;4.23;;;2.90;96.00;;;;;;5077642;28;20213;-90
2023/01/28 03:57:21;;;;;;;4.93;4.43;;;3.00;95.80;;;;;;5079106;28;20231;-87
2023/01/28 03:59:48;;;;;;;4.70;4.30;;;3.00;95.40;;;;;;5079112;28;20215;-90
2023/01/28 04:02:15;;;;;;;4.60;4.20;;;3.10;96.00;;;;;;5077238;28;20857;-86
2023/01/28 04:04:41;;;;;;;4.57;4.17;;;3.10;96.20;;;;;;5075901;28;20607;-91
2023/01/28 04:07:09;;;;;;;4.60;3.97;;;3.00;96.70;;;;;;5077049;28;20159;-88
2023/01/28 04:09:35;;;;;;;4.57;4.10;;;3.00;97.60;;;;;;5077624;28;20219;-88
2023/01/28 04:12:02;;;;;;;4.60;4.20;;;3.00;98.10;;;;;;5077848;28;20191;-87
2023/01/28 04:14:28;;;;;;;5.20;4.50;;;3.00;98.80;;;;;;5076974;28;20538;-88
2023/01/28 04:16:54;;;;;;;5.23;4.73;;;2.90;99.20;;;;;;5076491;28;20175;-87
2023/01/28 04:19:20;;;;;;;4.57;4.17;;;3.00;99.50;;;;;;5078196;28;20631;-88
2023/01/28 04:21:47;;;;;;;4.33;3.93;;;3.00;99.50;;;;;;5077381;28;20290;-89
2023/01/28 04:24:14;;;;;;;4.63;4.23;;;3.00;99.30;;;;;;5077884;28;20263;-88
2023/01/28 04:26:39;;;;;;;4.50;4.17;;;3.00;99.30;;;;;;5077304;28;20255;-89
2023/01/28 04:29:05;;;;;;;5.00;4.50;;;3.00;99.30;;;;;;5075280;28;20242;-89
2023/01/28 04:31:31;;;;;;;5.30;4.80;;;3.00;99.80;;;;;;5077862;28;20274;-90
2023/01/28 04:33:57;;;;;;;4.83;4.43;;;3.10;99.90;;;;;;5077740;28;20243;-88
2023/01/28 04:36:24;;;;;;;4.50;4.10;;;3.00;99.90;;;;;;5077748;28;20218;-90
2023/01/28 04:38:49;;;;;;;5.13;4.70;;;3.10;99.90;;;;;;5079193;28;20200;-86
2023/01/28 04:41:15;;;;;;;5.37;4.70;;;3.10;99.90;;;;;;5079224;28;20214;-88
2023/01/28 04:43:41;;;;;;;5.00;4.60;;;3.00;99.90;;;;;;5074955;28;20262;-88
2023/01/28 04:46:07;;;;;;;5.40;4.90;;;3.00;99.90;;;;;;5074166;28;20253;-87
2023/01/28 04:48:33;;;;;;;5.30;4.80;;;3.00;99.90;;;;;;5074509;28;20214;-90
2023/01/28 04:51:00;;;;;;;4.53;4.00;;;2.90;99.90;;;;;;5074034;28;20171;-88
2023/01/28 04:53:25;;;;;;;4.97;4.47;;;2.90;99.90;;;;;;5071103;28;20200;-87
2023/01/28 04:55:51;;;;;;;5.10;4.63;;;2.90;99.90;;;;;;5087333;28;20194;-91
2023/01/28 04:58:17;;;;;;;5.37;4.43;;;2.90;99.90;;;;;;5096073;28;20199;-90
2023/01/28 05:00:42;;;;;;;5.70;5.20;;;2.90;99.90;;;;;;5096013;28;20215;-92
2023/01/28 05:03:08;;;;;;;5.13;4.63;;;2.90;99.90;;;;;;5095938;28;20168;-91
2023/01/28 05:05:33;;;;;;;5.10;4.60;;;2.80;99.90;;;;;;5085038;28;20202;-88
2023/01/28 05:07:59;;;;;;;4.43;4.03;;;2.80;99.90;;;;;;5080117;28;20199;-88
2023/01/28 05:10:26;;;;;;;4.50;4.10;;;2.80;99.90;;;;;;5079990;28;20494;-88
2023/01/28 05:12:51;;;;;;;4.57;4.10;;;2.70;99.90;;;;;;5077844;28;20211;-88
2023/01/28 05:15:18;;;;;;;6.50;4.40;;;2.80;99.90;;;;;;5079377;28;20625;-88
2023/01/28 05:17:44;;;;;;;5.33;4.43;;;2.80;99.90;;;;;;5079987;28;20254;-88
2023/01/28 05:20:14;;;;;;;4.63;4.23;;;2.80;99.90;;;;;;5079909;28;20258;-90
2023/01/28 05:22:40;;;;;;;7.13;4.53;;;2.80;99.90;;;;;;5081245;28;20172;-88
2023/01/28 05:25:07;;;;;;;6.57;4.87;;;2.80;99.90;;;;;;5079314;28;20230;-90
2023/01/28 05:27:33;;;;;;;4.93;4.43;;;2.80;99.90;;;;;;5081066;28;20179;-88
2023/01/28 05:29:59;;;;;;;4.83;4.43;;;2.80;99.90;;;;;;5080187;28;20199;-90
2023/01/28 05:32:25;;;;;;;4.30;3.97;;;2.80;99.90;;;;;;5080339;28;20191;-88
2023/01/28 05:34:51;;;;;;;5.33;4.83;;;2.80;99.90;;;;;;5081664;28;20537;-89
2023/01/28 05:37:16;;;;;;;5.47;4.63;;;2.80;99.90;;;;;;5083210;28;20190;-91
2023/01/28 05:39:42;;;;;;;4.73;4.33;;;2.80;99.90;;;;;;5080990;28;20267;-88
2023/01/28 05:42:08;;;;;;;4.47;4.07;;;2.70;99.90;;;;;;5081872;28;20176;-89
2023/01/28 05:44:33;;;;;;;4.50;4.10;;;2.70;99.90;;;;;;5080608;28;20592;-88
2023/01/28 05:46:59;;;;;;;5.77;5.07;;;2.80;99.90;;;;;;5081169;28;20184;-91
2023/01/28 05:49:25;;;;;;;5.13;4.53;;;2.70;99.90;;;;;;5080261;28;20223;-87
2023/01/28 05:51:51;;;;;;;5.03;4.63;;;2.70;99.90;;;;;;5079974;28;20560;-88
2023/01/28 05:54:17;;;;;;;4.73;4.33;;;2.70;99.90;;;;;;5082946;28;20249;-88
2023/01/28 05:56:43;;;;;;;6.60;4.93;;;2.70;99.90;;;;;;5083891;28;20203;-89
2023/01/28 05:59:12;;;;;;;4.87;4.37;;;2.70;99.90;;;;;;5081462;28;20294;-90
2023/01/28 06:01:38;;;;;;;4.87;4.40;;;2.70;99.90;;;;;;5081892;28;20200;-90
2023/01/28 06:04:04;;;;;;;4.67;4.27;;;2.70;99.90;;;;;;5081345;28;20195;-90
2023/01/28 06:06:29;;;;;;;5.63;5.03;;;2.70;99.90;;;;;;5084939;28;20538;-88
2023/01/28 06:08:55;;;;;;;5.50;5.00;;;2.70;99.90;;;;;;5087343;28;20196;-89
2023/01/28 06:11:21;;;;;;;7.70;7.00;;;2.70;99.90;;;;;;5084982;28;20251;-88
2023/01/28 06:13:47;;;;;;;5.73;5.23;;;2.70;99.90;;;;;;5084833;28;20186;-89
2023/01/28 06:16:12;;;;;;;6.20;5.70;;;2.70;99.90;;;;;;5086284;28;20210;-89
2023/01/28 06:18:40;;;;;;;5.03;4.63;;;2.80;99.90;;;;;;5085925;28;20211;-90
2023/01/28 06:21:05;;;;;;;4.60;4.20;;;2.80;99.90;;;;;;5085884;28;20306;-88
2023/01/28 06:23:31;;;;;;;6.40;5.73;;;2.70;99.90;;;;;;5086067;28;20184;-89
2023/01/28 06:25:57;;;;;;;5.13;4.63;;;2.70;99.90;;;;;;5086151;28;20179;-89
2023/01/28 06:28:26;;;;;;;4.87;3.73;;;2.70;99.90;;;;;;5087948;28;20223;-91
2023/01/28 06:30:52;;;;;;;5.33;4.83;;;2.70;99.90;;;;;;5083071;28;20270;-88
2023/01/28 06:33:19;;;;;;;4.20;3.77;;;2.70;99.90;;;;;;5084961;28;20211;-90
2023/01/28 06:35:45;;;;;;;4.73;4.33;;;2.70;99.90;;;;;;5091159;28;20184;-88
2023/01/28 06:38:11;;;;;;;7.40;6.53;;;2.70;99.90;;;;;;5083551;28;20206;-88
2023/01/28 06:40:37;;;;;;;9.33;7.60;;;2.80;99.90;;;;;;5084781;28;20523;-88
2023/01/28 06:43:04;;;;;;;7.50;6.30;;;2.80;99.90;;;;;;5085989;28;20179;-88
2023/01/28 06:45:30;;;;;;;6.63;5.43;;;2.70;99.90;;;;;;5084018;28;20250;-89
2023/01/28 06:47:56;;;;;;;5.70;5.20;;;2.70;99.90;;;;;;5082980;28;20184;-88
2023/01/28 06:50:22;;;;;;;5.60;5.10;;;2.70;99.90;;;;;;5082681;28;20612;-90
2023/01/28 06:52:48;;;;;;;5.40;4.90;;;2.70;99.90;;;;;;5083897;28;20196;-89
2023/01/28 06:55:13;;;;;;;5.60;5.10;;;2.70;99.90;;;;;;5084297;28;20241;-89
2023/01/28 06:57:40;;;;;;;6.07;5.57;;;2.80;99.90;;;;;;5085221;28;20180;-88
2023/01/28 07:00:09;;;;;;;5.07;4.67;;;2.80;99.90;;;;;;5086442;28;20211;-85
2023/01/28 07:02:38;;;;;;;4.80;3.93;;;2.80;99.90;;;;;;5086536;28;20265;-87
2023/01/28 07:05:04;;;;;;;4.40;4.00;;;2.90;99.90;;;;;;5085443;28;20198;-87
2023/01/28 07:07:30;;;;;;;6.07;5.33;;;2.80;99.90;;;;;;5085446;28;20168;-87
2023/01/28 07:09:55;;;;;;;5.03;4.57;;;2.80;99.90;;;;;;5086315;28;20258;-82
2023/01/28 07:12:21;;;;;;;5.27;4.73;;;2.80;99.90;;;;;;5084175;28;20717;-88
2023/01/28 07:14:47;;;;;;;5.17;4.67;;;2.80;99.90;;;;;;5084737;28;20179;-89
2023/01/28 07:17:12;;;;;;;4.43;4.00;;;2.70;99.90;;;;;;5082971;28;20187;-88
2023/01/28 07:19:40;;;;;;;4.57;4.10;;;2.80;99.90;;;;;;5083124;28;20270;-88
2023/01/28 07:22:06;;;;;;;4.53;4.13;;;2.80;99.90;;;;;;5083025;28;20179;-88
2023/01/28 07:24:35;;;;;;;4.87;4.47;;;2.80;99.90;;;;;;5080428;28;20639;-86
2023/01/28 07:27:00;;;;;;;4.63;4.23;;;2.90;99.90;;;;;;5081851;28;20474;-87
2023/01/28 07:29:26;;;;;;;5.27;4.77;;;2.90;99.90;;;;;;5080642;28;20195;-87
2023/01/28 07:31:52;;;;;;;4.60;4.20;;;2.90;99.90;;;;;;5080563;28;20191;-88
2023/01/28 07:34:18;;;;;;;4.87;4.43;;;2.90;99.90;;;;;;5078698;28;20192;-88
2023/01/28 07:36:43;;;;;;;5.07;4.33;;;2.90;99.90;;;;;;5081029;28;20180;-88
2023/01/28 07:39:09;;;;;;;4.43;3.97;;;2.90;99.90;;;;;;5080994;28;20685;-88
2023/01/28 07:41:35;;;;;;;5.40;4.83;;;2.90;99.90;;;;;;5081822;28;20668;-88
2023/01/28 07:44:00;;;;;;;4.60;4.10;;;3.00;99.90;;;;;;5081483;28;20248;-90
2023/01/28 07:46:27;;;;;;;5.20;4.70;;;3.00;99.90;;;;;;5088661;28;20171;-87
2023/01/28 07:48:53;;;;;;;4.93;4.53;;;2.90;99.90;;;;;;5083238;28;20191;-88
2023/01/28 07:51:19;;;;;;;4.57;4.20;;;3.00;99.90;;;;;;5080332;28;20182;-88
2023/01/28 07:53:44;;;;;;;6.00;4.30;;;2.90;99.90;;;;;;5080010;28;20738;-87
2023/01/28 07:56:10;;;;;;;5.13;4.33;;;3.00;99.90;;;;;;5080752;28;20183;-86
2023/01/28 07:58:36;;;;;;;4.80;4.40;;;2.90;99.90;;;;;;5082892;28;20207;-88
2023/01/28 08:01:01;;;;;;;5.07;4.57;;;2.80;99.90;;;;;;5083947;28;20716;-89
2023/01/28 08:03:27;;;;;;;5.40;4.90;;;2.80;99.90;;;;;;5083424;28;20198;-88
2023/01/28 08:05:55;;;;;;;5.07;4.57;;;2.80;99.90;;;;;;5082797;28;20191;-88
2023/01/28 08:08:22;;;;;;;5.60;4.73;;;2.80;99.90;;;;;;5081056;28;20196;-87
2023/01/28 08:10:48;;;;;;;6.43;4.70;;;2.80;99.90;;;;;;5081981;28;20183;-88
2023/01/28 08:13:18;;;;;;;4.63;4.20;;;2.70;99.90;;;;;;5080866;28;20180;-87
2023/01/28 08:15:45;;;;;;;4.97;4.57;;;2.70;99.90;;;;;;5069941;28;20187;-88
2023/01/28 08:18:12;;;;;;;4.73;4.33;;;2.70;99.90;;;;;;5061832;28;20215;-87
2023/01/28 08:20:38;;;;;;;5.10;4.40;;;2.70;99.90;;;;;;5062240;28;20262;-88
2023/01/28 08:23:13;;;;;;;4.77;4.37;;;2.60;99.90;;;;;;5083293;28;20206;-88
2023/01/28 08:25:38;;;;;;;6.23;5.63;;;2.70;99.90;;;;;;5080895;28;20170;-87
2023/01/28 08:28:05;;;;;;;5.83;5.23;;;2.70;99.90;;;;;;5079881;28;20183;-87
2023/01/28 08:30:31;;;;;;;4.80;4.40;;;2.70;99.90;;;;;;5081420;28;20243;-86
2023/01/28 08:32:58;;;;;;;4.77;4.37;;;2.80;99.90;;;;;;5084640;28;20183;-82
2023/01/28 08:35:25;;;;;;;6.13;5.63;;;2.80;99.90;;;;;;5080688;28;20183;-80
2023/01/28 08:37:50;;;;;;;6.17;5.20;;;2.80;99.90;;;;;;5090001;28;20212;-83
2023/01/28 08:40:16;;;;;;;6.70;6.00;;;2.70;99.90;;;;;;5094315;28;20207;-84
2023/01/28 08:42:50;;;;;;;8.27;7.30;;;2.70;99.90;;;;;;5095817;28;20203;-85
2023/01/28 08:45:17;;;;;;;6.10;5.47;;;2.80;99.90;;;;;;5095462;28;20275;-88
2023/01/28 08:47:50;;;;;;;6.30;5.70;;;2.80;99.90;;;;;;5082147;28;20211;-86
2023/01/28 08:50:17;;;;;;;6.07;5.53;;;2.80;99.90;;;;;;5081397;28;20176;-85
2023/01/28 08:52:44;;;;;;;5.17;4.63;;;2.80;99.90;;;;;;5080101;28;20247;-87
2023/01/28 08:55:11;;;;;;;5.10;4.60;;;2.90;99.90;;;;;;5079543;28;20204;-86
2023/01/28 08:57:39;;;;;;;6.13;5.00;;;2.80;99.90;;;;;;5080555;28;20184;-87
2023/01/28 09:00:12;;;;;;;4.93;4.43;;;2.80;99.90;;;;;;5068715;22;20227;-87
2023/01/28 09:02:56;;;;;;;6.53;5.60;;;2.80;99.90;;;;;;5041180;28;20180;-88
2023/01/28 09:05:38;;;;;;;5.57;5.07;;;2.80;99.90;;;;;;5041768;28;20189;-87
2023/01/28 09:08:08;;;;;;;8.87;7.97;;;2.80;99.90;;;;;;5037730;28;20180;-85
2023/01/28 09:10:36;;;;;;;11.07;9.27;;;2.90;99.90;;;;;;5016012;28;20178;-85
2023/01/28 09:13:14;;;;;;;9.97;9.17;;;2.80;99.90;;;;;;5001243;28;20186;-86
2023/01/28 09:15:42;;;;;;;7.80;7.00;;;2.90;99.90;;;;;;5032426;28;20177;-86
2023/01/28 09:18:09;;;;;;;5.80;5.30;;;2.90;99.90;;;;;;5017866;28;20260;-87
2023/01/28 09:20:43;;;;;;;5.67;5.07;;;2.90;99.90;;;;;;5035230;28;20193;-85
2023/01/28 09:23:12;;;;;;;5.93;5.40;;;2.90;99.90;;;;;;5017522;28;20656;-88
2023/01/28 09:25:38;;;;;;;6.17;5.57;;;3.00;99.90;;;;;;5031745;28;20173;-85
2023/01/28 09:28:04;;;;;;;7.10;6.47;;;3.00;99.90;;;;;;5006865;28;20237;-85
2023/01/28 09:30:30;;;;;;;6.40;5.80;;;3.00;99.90;;;;;;5016605;28;20248;-86
2023/01/28 09:32:59;;;;;;;5.93;5.43;;;3.00;99.90;;;;;;5003362;28;20190;-84
2023/01/28 09:35:25;;;;;;;5.60;5.10;;;3.00;99.90;;;;;;5001128;28;20600;-85
2023/01/28 09:37:51;;;;;;;8.10;7.40;;;3.10;99.90;;;;;;5000696;28;20228;-86
2023/01/28 09:40:30;;;;;;;10.97;9.97;;;3.00;99.90;;;;;;5024726;28;20197;-86
2023/01/28 09:43:24;;;;;;;7.97;7.20;;;3.10;99.90;;;;;;5024490;28;20166;-87
2023/01/28 09:45:54;;;;;;;6.37;5.70;;;3.20;99.90;;;;;;5013989;28;20208;-86
2023/01/28 09:48:24;;;;;;;6.30;5.73;;;3.20;99.90;;;;;;5021731;28;20240;-87
2023/01/28 09:50:52;;;;;;;6.60;6.07;;;3.20;99.90;;;;;;5037479;28;20203;-88
2023/01/28 09:53:34;;;;;;;6.47;5.87;;;3.30;99.90;;;;;;5024738;28;20204;-87
2023/01/28 09:56:29;;;;;;;7.37;5.93;;;3.30;99.90;;;;;;5034107;28;20177;-87
2023/01/28 09:59:19;;;;;;;8.07;7.27;;;3.30;99.90;;;;;;5017296;28;20252;-87
2023/01/28 10:01:53;;;;;;;10.30;9.30;;;3.30;99.90;;;;;;5024795;28;20217;-88
2023/01/28 10:04:25;;;;;;;8.40;6.83;;;3.30;99.90;;;;;;5031403;28;20191;-87
2023/01/28 10:06:54;;;;;;;6.60;6.00;;;3.30;99.90;;;;;;5019030;28;20193;-86
2023/01/28 10:09:42;;;;;;;7.20;6.13;;;3.30;99.90;;;;;;5023136;28;20205;-87
2023/01/28 10:12:59;;;;;;;11.10;10.00;;;3.30;99.90;;;;;;5017763;28;20619;-86
2023/01/28 10:15:54;;;;;;;6.33;5.83;;;3.20;99.90;;;;;;4945830;29;20183;-89
2023/01/28 10:19:09;;;;;;;5.23;4.77;;;3.30;99.90;;;;;;4941622;29;20215;-86
2023/01/28 10:21:37;;;;;;;5.20;4.70;;;3.40;99.90;;;;;;4943182;29;20781;-88
2023/01/28 10:24:35;;;;;;;8.10;6.00;;;3.40;99.90;;;;;;5030870;28;20205;-87
2023/01/28 10:27:08;;;;;;;5.77;5.17;;;3.40;99.90;;;;;;5011986;28;20176;-88
2023/01/28 10:29:35;;;;;;;7.90;7.10;;;3.40;99.90;;;;;;5033987;28;20198;-87
2023/01/28 10:32:12;;;;;;;6.00;5.40;;;3.40;99.90;;;;;;5023920;28;20683;-87
2023/01/28 10:34:38;;;;;;;5.80;5.30;;;3.50;99.70;;;;;;5010026;28;20212;-86
2023/01/28 10:37:04;;;;;;;6.33;5.73;;;3.50;99.20;;;;;;5024268;28;20609;-89
2023/01/28 10:39:30;;;;;;;6.90;6.20;;;3.40;99.10;;;;;;5021857;28;20205;-89
2023/01/28 10:41:55;;;;;;;7.17;6.47;;;3.50;99.50;;;;;;5008215;28;20201;-87
2023/01/28 10:44:33;;;;;;;6.90;6.30;;;3.40;99.50;;;;;;5025360;28;20657;-87
2023/01/28 10:47:07;;;;;;;5.90;5.30;;;3.30;99.70;;;;;;5044224;28;20184;-88
2023/01/28 10:49:45;;;;;;;6.83;6.13;;;3.20;99.80;;;;;;5005914;28;20190;-88
2023/01/28 10:52:14;;;;;;;6.73;6.13;;;3.30;99.90;;;;;;5012572;28;20281;-87
2023/01/28 10:54:40;;;;;;;7.07;6.37;;;3.20;99.90;;;;;;5026594;28;20200;-88
2023/01/28 10:57:12;;;;;;;5.93;5.30;;;3.00;99.90;;;;;;5027255;28;20193;-88
2023/01/28 10:59:41;;;;;;;6.20;5.60;;;3.00;99.90;;;;;;5026962;28;20231;-87
2023/01/28 11:02:35;;;;;;;7.30;6.30;;;3.00;99.90;;;;;;5033228;28;20221;-88
2023/01/28 11:05:26;;;;;;;6.10;5.50;;;3.00;99.90;;;;;;5017983;28;20245;-88
2023/01/28 11:08:15;;;;;;;8.23;7.13;;;3.10;99.90;;;;;;5039702;28;20243;-88
2023/01/28 11:10:42;;;;;;;6.80;6.10;;;3.10;99.90;;;;;;5033710;28;20168;-86
2023/01/28 11:13:21;;;;;;;8.53;6.33;;;3.10;99.90;;;;;;5045916;28;20288;-87
2023/01/28 11:15:59;;;;;;;6.63;5.63;;;3.00;99.90;;;;;;5042713;28;20339;-86
2023/01/28 11:18:38;;;;;;;6.00;5.47;;;3.00;99.90;;;;;;5043904;28;20395;-87
2023/01/28 11:21:13;;;;;;;6.00;5.40;;;3.10;99.90;;;;;;5042068;28;20585;-87
2023/01/28 11:23:52;;;;;;;6.57;5.97;;;3.10;99.90;;;;;;5028351;28;20168;-87
2023/01/28 11:26:22;;;;;;;6.57;5.97;;;3.20;99.90;;;;;;5012922;28;20273;-88
2023/01/28 11:28:49;;;;;;;6.00;5.40;;;3.30;99.90;;;;;;5026512;28;20226;-86
2023/01/28 11:31:20;;;;;;;6.43;5.83;;;3.30;99.90;;;;;;5009796;28;20177;-86
2023/01/28 11:33:59;;;;;;;6.57;5.83;;;3.30;99.90;;;;;;5009116;28;20268;-89
2023/01/28 11:36:27;;;;;;;6.53;5.93;;;3.30;99.90;;;;;;4988213;28;20181;-86
2023/01/28 11:39:18;;;;;;;6.77;5.97;;;3.30;99.90;;;;;;5002000;28;20209;-86
2023/01/28 11:41:43;;;;;;;6.40;5.77;;;3.30;99.90;;;;;;5035902;28;20224;-87
2023/01/28 11:44:14;;;;;;;6.70;6.10;;;3.40;99.90;;;;;;5037883;28;20193;-87
2023/01/28 11:47:05;;;;;;;6.20;5.60;;;3.40;99.90;;;;;;5030049;28;20173;-86
2023/01/28 11:49:33;;;;;;;7.27;6.33;;;3.50;99.90;;;;;;5026339;28;20209;-88
2023/01/28 11:52:17;;;;;;;9.10;7.27;;;3.40;99.30;;;;;;5041568;28;20276;-88
2023/01/28 11:54:52;;;;;;;7.23;6.40;;;3.40;99.70;;;;;;5042719;28;20203;-87
2023/01/28 11:57:37;;;;;;;16.70;13.17;;;3.40;99.40;;;;;;5007494;28;20191;-87
2023/01/28 12:00:06;;;;;;;8.90;8.10;;;3.30;99.90;;;;;;5024834;28;20240;-87
2023/01/28 12:02:41;;;;;;;16.70;15.30;;;3.40;99.00;;;;;;5024030;28;20178;-88
2023/01/28 12:05:19;;;;;;;8.97;8.00;;;3.40;98.80;;;;;;5020862;28;20189;-86
2023/01/28 12:07:51;;;;;;;8.13;7.33;;;3.40;98.40;;;;;;5004079;28;20162;-86
2023/01/28 12:10:33;;;;;;;6.47;5.87;;;3.50;98.50;;;;;;5007114;28;20236;-88
2023/01/28 12:13:09;;;;;;;6.80;5.87;;;3.50;97.90;;;;;;5016291;28;20189;-86
2023/01/28 12:15:51;;;;;;;6.20;5.70;;;3.50;97.40;;;;;;5008705;28;20184;-86
2023/01/28 12:18:35;;;;;;;6.40;5.77;;;3.50;97.00;;;;;;5003663;28;20213;-87
2023/01/28 12:21:16;;;;;;;7.37;5.13;;;3.50;97.10;;;;;;5029382;28;20311;-87
2023/01/28 12:24:11;;;;;;;5.43;4.50;;;3.50;95.90;;;;;;5033962;28;20170;-85
2023/01/28 12:27:06;;;;;;;5.67;4.70;;;3.60;94.40;;;;;;5033646;28;20263;-88
2023/01/28 12:29:54;;;;;;;6.37;5.77;;;3.70;94.40;;;;;;5008091;28;20402;-86
2023/01/28 12:32:58;;;;;;;6.03;5.43;;;3.70;95.20;;;;;;5034979;28;20276;-87
2023/01/28 12:35:50;;;;;;;5.97;5.37;;;3.70;94.50;;;;;;5013657;28;20187;-85
2023/01/28 12:38:55;;;;;;;5.67;5.17;;;3.60;95.80;;;;;;5038750;28;20197;-87
2023/01/28 12:41:27;;;;;;;5.97;5.40;;;3.60;95.50;;;;;;4997050;28;20434;-85
2023/01/28 12:44:11;;;;;;;5.57;5.07;;;3.60;95.70;;;;;;5007417;28;20634;-86
2023/01/28 12:47:00;;;;;;;5.57;5.03;;;3.60;95.80;;;;;;5026910;28;20174;-86
2023/01/28 12:49:58;;;;;;;5.57;5.03;;;3.60;95.10;;;;;;5012852;28;20196;-86
2023/01/28 12:52:38;;;;;;;7.63;5.63;;;3.70;94.80;;;;;;5040430;28;20535;-88
2023/01/28 12:55:13;;;;;;;5.57;5.07;;;3.60;93.80;;;;;;5025911;28;20442;-86
2023/01/28 12:57:40;;;;;;;6.00;5.40;;;3.60;94.70;;;;;;5021825;28;20189;-86
2023/01/28 13:00:35;;;;;;;6.47;5.77;;;3.70;94.50;;;;;;5020305;28;20217;-86
2023/01/28 13:03:14;;;;;;;5.70;5.13;;;3.70;94.40;;;;;;5024470;28;20178;-87
2023/01/28 13:05:47;;;;;;;5.50;5.00;;;3.70;91.70;;;;;;5020630;28;20281;-85
2023/01/28 13:08:22;;;;;;;5.07;4.63;;;3.80;91.90;;;;;;5032116;28;20236;-85
2023/01/28 13:10:48;;;;;;;5.33;4.83;;;3.70;91.50;;;;;;5030204;28;20225;-87
2023/01/28 13:13:34;;;;;;;5.10;4.60;;;3.70;89.80;;;;;;5025474;28;20245;-88
2023/01/28 13:16:02;;;;;;;6.03;5.43;;;3.80;89.00;;;;;;5028540;28;20181;-86
2023/01/28 13:18:41;;;;;;;4.70;4.20;;;3.90;88.50;;;;;;5040789;28;20268;-86
2023/01/28 13:21:23;;;;;;;4.53;4.13;;;3.90;86.70;;;;;;5029185;28;20201;-86
2023/01/28 13:24:01;;;;;;;7.40;4.57;;;3.90;86.80;;;;;;5023506;28;20191;-86
2023/01/28 13:26:29;;;;;;;5.30;4.33;;;3.90;86.90;;;;;;5026475;28;20501;-88
2023/01/28 13:29:16;;;;;;;4.40;4.00;;;4.00;86.30;;;;;;5030732;28;20204;-86
2023/01/28 13:31:50;;;;;;;5.23;3.67;;;3.90;87.00;;;;;;5005761;28;20666;-88
2023/01/28 13:34:35;;;;;;;5.40;4.90;;;4.00;86.00;;;;;;5030834;28;20204;-87
2023/01/28 13:37:32;;;;;;;5.63;4.70;;;4.00;86.60;;;;;;5004609;28;20264;-86
2023/01/28 13:40:04;;;;;;;5.67;4.00;;;4.00;85.90;;;;;;5030638;28;20216;-86
2023/01/28 13:42:30;;;;;;;5.90;4.80;;;4.00;84.10;;;;;;5031248;28;20185;-86
2023/01/28 13:45:13;;;;;;;6.50;4.73;;;4.00;83.40;;;;;;5005410;28;20194;-87
2023/01/28 13:47:44;;;;;;;5.30;4.10;;;4.00;83.70;;;;;;5041170;28;20169;-87
2023/01/28 13:50:22;;;;;;;4.53;4.13;;;3.90;83.40;;;;;;5022598;28;20203;-86
2023/01/28 13:52:58;;;;;;;4.77;4.30;;;4.00;83.50;;;;;;5006712;28;20220;-86